Time;durP1;ratioP1;P1;durP2;ratioP2;P2;SDS_P1;SDS_P2;PMS_P1;PMS_P2;Temp;Humidity;BMP_temperature;BMP_pressure;BME280_temperature;BME280_humidity;BME280_pressure;Samples;Min_cycle;Max_cycle;Signal;HPM_P1;HPM_P2
2022/06/17 00:01:15;;;;;;;9.27;6.20;;;21.60;54.40;;;;;;6220703;23;20750;-91
2022/06/17 00:03:41;;;;;;;8.00;5.80;;;21.70;53.20;;;;;;6220933;23;20190;-89
2022/06/17 00:06:11;;;;;;;5.57;5.07;;;21.70;52.70;;;;;;6221734;23;20185;-90
2022/06/17 00:08:42;;;;;;;5.77;5.20;;;21.70;53.10;;;;;;6248456;23;20137;-90
2022/06/17 00:11:21;;;;;;;8.70;6.70;;;21.60;53.30;;;;;;6221441;23;20376;-88
2022/06/17 00:13:46;;;;;;;6.50;6.00;;;21.60;52.90;;;;;;6222488;23;20403;-87
2022/06/17 00:16:15;;;;;;;8.90;5.60;;;21.60;52.90;;;;;;6221486;23;20430;-90
2022/06/17 00:18:41;;;;;;;7.90;6.00;;;21.60;52.30;;;;;;6248627;23;20152;-88
2022/06/17 00:21:16;;;;;;;8.80;6.30;;;21.60;52.40;;;;;;6221229;23;20857;-90
2022/06/17 00:23:42;;;;;;;10.53;6.07;;;21.50;52.80;;;;;;6220975;23;20438;-89
2022/06/17 00:26:10;;;;;;;7.20;6.00;;;21.40;52.60;;;;;;6223664;23;20399;-91
2022/06/17 00:28:36;;;;;;;7.00;5.33;;;21.30;53.50;;;;;;6223508;23;20165;-91
2022/06/17 00:31:01;;;;;;;10.10;4.97;;;21.30;54.50;;;;;;6223960;23;20382;-90
2022/06/17 00:33:27;;;;;;;5.93;5.33;;;21.20;54.70;;;;;;6224357;23;20181;-91
2022/06/17 00:35:54;;;;;;;7.43;5.27;;;21.20;54.40;;;;;;6223100;23;20657;-90
2022/06/17 00:38:24;;;;;;;7.10;5.83;;;21.10;55.00;;;;;;6221931;23;20160;-90
2022/06/17 00:40:51;;;;;;;8.23;6.27;;;21.10;55.40;;;;;;6224093;23;20379;-90
2022/06/17 00:43:37;;;;;;;8.60;5.83;;;21.10;55.60;;;;;;6224845;23;20435;-89
2022/06/17 00:46:52;;;;;;;6.60;5.63;;;21.00;55.50;;;;;;6250897;23;20406;-90
2022/06/17 00:49:39;;;;;;;6.90;5.77;;;21.10;55.20;;;;;;6220733;23;20410;-90
2022/06/17 00:52:15;;;;;;;7.40;5.50;;;21.10;55.00;;;;;;6221963;22;20368;-89
2022/06/17 00:54:46;;;;;;;11.27;6.40;;;20.90;55.70;;;;;;6222417;23;20375;-90
2022/06/17 00:57:26;;;;;;;7.27;5.70;;;20.90;55.50;;;;;;6221654;23;20443;-90
2022/06/17 01:00:04;;;;;;;7.60;5.97;;;20.90;55.20;;;;;;6221620;23;20371;-91
2022/06/17 01:02:37;;;;;;;9.10;6.23;;;20.90;55.10;;;;;;6221445;23;20435;-91
2022/06/17 01:05:04;;;;;;;5.83;5.23;;;20.90;55.40;;;;;;6222431;23;20424;-89
2022/06/17 01:07:36;;;;;;;6.60;5.87;;;20.80;55.40;;;;;;6223027;23;20376;-91
2022/06/17 01:10:09;;;;;;;8.40;6.77;;;20.80;55.90;;;;;;6221748;23;20371;-89
2022/06/17 01:13:01;;;;;;;9.67;6.30;;;20.80;55.60;;;;;;6220826;23;20511;-89
2022/06/17 01:15:28;;;;;;;9.97;5.93;;;20.80;55.40;;;;;;6220842;23;20433;-88
2022/06/17 01:17:55;;;;;;;8.33;6.10;;;20.80;55.00;;;;;;6221257;23;20383;-89
2022/06/17 01:20:22;;;;;;;10.20;6.10;;;20.80;55.70;;;;;;6221137;23;20421;-90
2022/06/17 01:22:49;;;;;;;7.20;5.90;;;20.70;56.10;;;;;;6220863;23;20435;-89
2022/06/17 01:25:24;;;;;;;11.07;6.13;;;20.60;56.60;;;;;;6221855;23;20788;-90
2022/06/17 01:27:52;;;;;;;9.80;6.60;;;20.60;56.70;;;;;;6221481;23;20403;-90
2022/06/17 01:30:28;;;;;;;6.90;5.27;;;20.60;56.80;;;;;;6221884;23;20788;-89
2022/06/17 01:33:31;;;;;;;6.93;6.23;;;20.60;56.90;;;;;;6221260;23;20502;-90
2022/06/17 01:36:18;;;;;;;7.00;5.60;;;20.60;56.40;;;;;;6221565;23;20371;-90
2022/06/17 01:38:48;;;;;;;9.23;6.20;;;20.60;56.20;;;;;;6220598;23;20739;-91
2022/06/17 01:41:15;;;;;;;7.90;6.00;;;20.60;56.10;;;;;;6220029;23;20384;-88
2022/06/17 01:43:48;;;;;;;6.80;5.80;;;20.60;56.00;;;;;;6219613;23;20443;-89
2022/06/17 01:46:22;;;;;;;7.13;6.40;;;20.60;55.80;;;;;;6221124;23;20466;-89
2022/06/17 01:48:55;;;;;;;6.03;5.53;;;20.60;56.10;;;;;;6198956;23;20424;-90
2022/06/17 01:51:24;;;;;;;11.20;5.77;;;20.60;56.30;;;;;;6227726;23;20376;-90
2022/06/17 01:53:53;;;;;;;5.60;5.10;;;20.50;56.70;;;;;;6232465;23;20407;-90
2022/06/17 01:56:22;;;;;;;6.67;5.20;;;20.40;56.90;;;;;;6220535;23;20391;-89
2022/06/17 01:59:15;;;;;;;6.57;5.50;;;20.40;56.80;;;;;;6220143;23;20436;-89
2022/06/17 02:01:47;;;;;;;6.60;5.83;;;20.40;56.90;;;;;;6220698;23;20378;-89
2022/06/17 02:04:18;;;;;;;7.43;6.17;;;20.40;56.80;;;;;;6219497;23;20427;-91
2022/06/17 02:06:51;;;;;;;7.53;5.97;;;20.40;56.90;;;;;;6219005;23;20395;-91
2022/06/17 02:09:17;;;;;;;7.38;6.32;;;20.40;56.70;;;;;;6246807;23;20356;-91
2022/06/17 02:11:43;;;;;;;8.07;5.43;;;20.40;56.70;;;;;;6219544;23;20178;-89
2022/06/17 02:14:09;;;;;;;6.83;5.97;;;20.40;56.70;;;;;;6219876;23;21111;-90
2022/06/17 02:16:42;;;;;;;15.00;6.00;;;20.30;57.50;;;;;;6219326;23;20153;-90
2022/06/17 02:19:09;;;;;;;9.43;5.93;;;20.30;57.40;;;;;;6219753;23;20408;-90
2022/06/17 02:21:50;;;;;;;6.50;5.90;;;20.20;57.80;;;;;;6219430;23;20395;-90
2022/06/17 02:24:17;;;;;;;9.30;6.10;;;20.20;58.60;;;;;;6219900;23;20557;-89
2022/06/17 02:26:44;;;;;;;5.60;5.10;;;20.10;58.80;;;;;;6219882;23;20242;-89
2022/06/17 02:29:11;;;;;;;7.87;5.97;;;20.10;58.60;;;;;;6218858;23;20182;-89
2022/06/17 02:31:39;;;;;;;8.40;6.38;;;20.10;59.10;;;;;;6219515;23;20758;-89
2022/06/17 02:34:07;;;;;;;8.50;6.20;;;20.10;58.90;;;;;;6222292;23;20172;-89
2022/06/17 02:36:58;;;;;;;9.63;6.75;;;20.10;58.90;;;;;;6224513;23;20436;-91
2022/06/17 02:39:26;;;;;;;7.10;5.70;;;20.20;59.00;;;;;;6222632;23;20152;-90
2022/06/17 02:41:52;;;;;;;8.70;6.53;;;20.30;58.20;;;;;;6222453;23;20388;-90
2022/06/17 02:44:35;;;;;;;7.93;6.67;;;20.30;57.70;;;;;;6222470;23;20773;-90
2022/06/17 02:47:02;;;;;;;8.23;6.40;;;20.30;57.30;;;;;;6222173;23;20371;-90
2022/06/17 02:49:32;;;;;;;9.03;6.10;;;20.30;56.80;;;;;;6219815;23;20383;-91
2022/06/17 02:52:00;;;;;;;7.37;5.50;;;20.30;57.00;;;;;;6219522;22;20379;-91
2022/06/17 02:54:51;;;;;;;7.20;6.50;;;20.30;57.40;;;;;;6218866;23;20460;-90
2022/06/17 02:57:30;;;;;;;7.67;6.10;;;20.30;57.40;;;;;;6246070;23;20363;-90
2022/06/17 03:00:01;;;;;;;6.33;5.80;;;20.20;57.80;;;;;;6246969;23;20804;-90
2022/06/17 03:02:41;;;;;;;7.40;6.00;;;20.30;57.40;;;;;;6218779;23;20481;-90
2022/06/17 03:05:26;;;;;;;7.37;5.77;;;20.30;57.00;;;;;;6219101;23;20906;-90
2022/06/17 03:07:54;;;;;;;7.33;6.23;;;20.30;57.60;;;;;;6220302;23;20455;-89
2022/06/17 03:10:29;;;;;;;7.93;6.33;;;20.30;57.00;;;;;;6220441;23;20417;-90
2022/06/17 03:13:25;;;;;;;10.10;6.90;;;20.20;57.10;;;;;;6220151;23;20430;-89
2022/06/17 03:15:55;;;;;;;8.30;7.40;;;20.20;57.60;;;;;;6220289;23;20415;-89
2022/06/17 03:18:22;;;;;;;9.43;6.80;;;20.20;57.50;;;;;;6219406;23;20371;-89
2022/06/17 03:20:49;;;;;;;7.67;6.70;;;20.20;56.90;;;;;;6248537;23;20382;-91
2022/06/17 03:24:04;;;;;;;7.47;6.30;;;20.30;56.80;;;;;;6219941;23;20431;-91
2022/06/17 03:26:38;;;;;;;7.13;6.30;;;20.30;57.30;;;;;;6179609;23;20392;-91
2022/06/17 03:29:06;;;;;;;7.70;6.30;;;20.30;57.30;;;;;;6219896;23;20371;-90
2022/06/17 03:31:43;;;;;;;7.20;6.60;;;20.20;57.10;;;;;;6222020;23;20709;-89
2022/06/17 03:34:36;;;;;;;6.23;5.60;;;20.20;57.40;;;;;;6223042;23;20967;-91
2022/06/17 03:37:24;;;;;;;5.87;5.33;;;20.20;57.90;;;;;;6220415;23;20383;-91
2022/06/17 03:40:14;;;;;;;6.90;6.20;;;20.20;57.30;;;;;;6196217;23;20445;-90
2022/06/17 03:43:06;;;;;;;8.73;5.50;;;20.30;57.00;;;;;;6246691;22;20427;-90
2022/06/17 03:45:44;;;;;;;10.73;6.20;;;20.30;56.90;;;;;;6219621;23;20755;-89
2022/06/17 03:48:48;;;;;;;7.20;6.30;;;20.20;57.40;;;;;;6221566;23;20371;-89
2022/06/17 03:51:18;;;;;;;7.60;5.90;;;20.30;57.00;;;;;;6221079;23;20367;-89
2022/06/17 03:53:45;;;;;;;8.63;6.10;;;20.30;56.90;;;;;;6222596;23;20395;-90
2022/06/17 03:56:24;;;;;;;6.87;5.60;;;20.30;56.70;;;;;;6223757;23;20858;-90
2022/06/17 03:58:53;;;;;;;6.10;5.60;;;20.30;56.80;;;;;;6223847;23;20834;-91
2022/06/17 04:01:42;;;;;;;8.70;5.50;;;20.30;56.80;;;;;;6223321;23;20465;-90
2022/06/17 04:04:26;;;;;;;5.73;5.23;;;20.30;56.90;;;;;;6222917;23;20431;-89
2022/06/17 04:06:55;;;;;;;9.47;6.40;;;20.30;57.50;;;;;;6222901;23;20381;-90
2022/06/17 04:09:32;;;;;;;8.80;6.37;;;20.30;60.00;;;;;;6221775;23;20451;-90
2022/06/17 04:12:26;;;;;;;7.57;6.70;;;20.20;62.50;;;;;;6221776;22;20380;-90
2022/06/17 04:14:58;;;;;;;8.57;6.77;;;20.20;62.20;;;;;;6245197;23;21033;-89
2022/06/17 04:17:36;;;;;;;8.20;6.87;;;20.10;63.20;;;;;;6228104;23;20383;-90
2022/06/17 04:20:30;;;;;;;12.40;7.40;;;20.10;63.60;;;;;;6238759;23;20379;-90
2022/06/17 04:23:24;;;;;;;13.53;7.43;;;20.00;62.90;;;;;;6235980;23;20215;-89
2022/06/17 04:26:26;;;;;;;8.93;6.68;;;19.90;62.80;;;;;;6224351;23;20404;-89
2022/06/17 04:29:00;;;;;;;8.85;6.82;;;19.90;62.00;;;;;;6223557;23;20144;-92
2022/06/17 04:31:29;;;;;;;9.70;6.80;;;20.00;61.80;;;;;;6247982;23;20145;-89
2022/06/17 04:34:04;;;;;;;8.37;6.37;;;20.00;61.60;;;;;;6221042;23;20938;-91
2022/06/17 04:36:55;;;;;;;7.07;6.43;;;20.10;62.10;;;;;;6226259;23;20384;-91
2022/06/17 04:39:38;;;;;;;7.30;6.13;;;20.10;61.90;;;;;;6226319;23;20372;-90
2022/06/17 04:42:30;;;;;;;10.00;5.70;;;20.10;61.20;;;;;;6227483;22;20438;-89
2022/06/17 04:44:56;;;;;;;7.03;6.10;;;20.10;61.20;;;;;;6221511;23;20413;-87
2022/06/17 04:47:22;;;;;;;12.43;6.87;;;20.10;61.60;;;;;;6265770;23;20406;-89
2022/06/17 04:49:55;;;;;;;8.17;6.43;;;20.20;61.20;;;;;;6241125;22;20427;-88
2022/06/17 04:52:36;;;;;;;6.87;6.17;;;20.30;60.30;;;;;;6260184;22;20434;-90
2022/06/17 04:55:05;;;;;;;15.57;5.67;;;20.40;60.00;;;;;;6226066;23;20372;-91
2022/06/17 04:57:32;;;;;;;8.53;6.20;;;20.40;60.00;;;;;;6230341;23;20372;-90
2022/06/17 05:00:01;;;;;;;7.33;6.33;;;20.50;60.40;;;;;;6249979;23;20382;-91
2022/06/17 05:02:32;;;;;;;9.27;6.10;;;20.70;59.40;;;;;;6222086;23;20764;-90
2022/06/17 05:05:01;;;;;;;7.80;5.60;;;20.80;58.50;;;;;;6222617;23;20383;-91
2022/06/17 05:07:32;;;;;;;7.63;6.33;;;20.90;58.80;;;;;;6249998;23;20348;-90
2022/06/17 05:10:04;;;;;;;7.90;6.40;;;21.00;57.80;;;;;;6222448;23;20390;-89
2022/06/17 05:12:40;;;;;;;7.50;6.60;;;21.10;56.50;;;;;;6225266;23;20839;-89
2022/06/17 05:15:12;;;;;;;6.23;5.63;;;21.20;56.30;;;;;;6222082;23;20403;-90
2022/06/17 05:17:38;;;;;;;6.93;6.23;;;21.20;56.10;;;;;;6225403;23;20878;-90
2022/06/17 05:20:10;;;;;;;8.17;6.40;;;21.10;56.30;;;;;;6231869;23;20383;-91
2022/06/17 05:22:45;;;;;;;6.73;5.80;;;21.10;56.40;;;;;;6235846;23;20192;-91
2022/06/17 05:25:39;;;;;;;7.20;6.07;;;21.10;57.50;;;;;;6222227;23;20367;-90
2022/06/17 05:28:07;;;;;;;6.90;5.77;;;21.00;56.60;;;;;;6218477;23;20929;-89
2022/06/17 05:30:41;;;;;;;10.30;6.13;;;21.10;56.50;;;;;;6221934;23;20395;-90
2022/06/17 05:33:12;;;;;;;9.33;5.90;;;21.10;56.40;;;;;;6221299;23;20403;-91
2022/06/17 05:35:38;;;;;;;9.47;5.63;;;21.20;56.40;;;;;;6255037;23;20973;-90
2022/06/17 05:38:03;;;;;;;6.43;5.43;;;21.20;56.30;;;;;;6229762;23;20441;-90
2022/06/17 05:40:29;;;;;;;6.47;5.87;;;21.20;56.30;;;;;;6227484;23;20198;-90
2022/06/17 05:42:55;;;;;;;7.33;5.03;;;21.20;56.40;;;;;;6222536;23;20711;-90
2022/06/17 05:45:25;;;;;;;7.80;5.77;;;21.30;56.60;;;;;;6224407;23;20411;-90
2022/06/17 05:47:52;;;;;;;6.83;4.97;;;21.20;57.00;;;;;;6225555;23;20148;-89
2022/06/17 05:50:22;;;;;;;9.00;6.50;;;21.30;56.70;;;;;;6224572;23;20722;-89
2022/06/17 05:52:49;;;;;;;6.73;5.47;;;21.50;56.10;;;;;;6224460;23;20396;-89
2022/06/17 05:55:15;;;;;;;8.03;5.70;;;21.50;55.50;;;;;;6226463;23;20387;-89
2022/06/17 05:57:41;;;;;;;6.77;5.90;;;21.60;54.60;;;;;;6226970;23;20410;-89
2022/06/17 06:00:07;;;;;;;6.40;5.40;;;21.60;54.70;;;;;;6223734;23;20384;-89
2022/06/17 06:02:33;;;;;;;7.83;5.70;;;21.60;55.20;;;;;;6252270;22;20654;-89
2022/06/17 06:05:00;;;;;;;8.00;7.20;;;21.60;55.40;;;;;;6221361;23;20386;-90
2022/06/17 06:07:26;;;;;;;6.03;5.40;;;21.80;54.80;;;;;;6225630;23;20141;-88
2022/06/17 06:09:53;;;;;;;6.87;5.80;;;21.90;54.70;;;;;;6223425;23;20446;-88
2022/06/17 06:12:53;;;;;;;6.50;5.90;;;22.00;54.30;;;;;;6223353;23;20173;-91
2022/06/17 06:15:12;;;;;;;7.77;6.07;;;22.10;53.90;;;;;;6250557;23;20391;-90
2022/06/17 06:17:38;;;;;;;6.37;5.40;;;22.20;53.70;;;;;;6222100;23;20477;-91
2022/06/17 06:20:04;;;;;;;6.00;5.50;;;22.10;53.40;;;;;;6219759;23;20371;-92
2022/06/17 06:22:30;;;;;;;5.67;4.27;;;22.10;54.00;;;;;;6246517;22;20180;-88
2022/06/17 06:24:56;;;;;;;6.13;4.50;;;22.60;53.50;;;;;;6222597;23;20695;-89
2022/06/17 06:27:21;;;;;;;9.23;4.90;;;23.30;51.70;;;;;;6220721;23;20502;-89
2022/06/17 06:29:47;;;;;;;7.40;4.33;;;24.10;49.10;;;;;;6221498;23;20158;-89
2022/06/17 06:32:14;;;;;;;5.43;4.43;;;24.70;47.70;;;;;;6196240;22;20222;-89
2022/06/17 06:34:47;;;;;;;4.90;4.40;;;25.40;45.90;;;;;;6222500;23;20508;-90
2022/06/17 06:37:13;;;;;;;5.20;3.87;;;25.80;44.50;;;;;;6219964;23;20480;-91
2022/06/17 06:39:39;;;;;;;4.47;4.07;;;26.10;44.10;;;;;;6220168;23;20478;-90
2022/06/17 06:42:05;;;;;;;4.90;4.00;;;26.50;42.70;;;;;;6196417;22;20388;-89
2022/06/17 06:44:30;;;;;;;5.27;4.17;;;26.80;41.70;;;;;;6226749;23;20411;-90
2022/06/17 06:46:56;;;;;;;5.50;3.90;;;26.90;41.30;;;;;;6224269;23;20383;-90
2022/06/17 06:49:22;;;;;;;5.00;4.50;;;27.20;41.20;;;;;;6229305;23;20156;-88
2022/06/17 06:51:48;;;;;;;7.60;3.50;;;27.40;40.10;;;;;;6226658;23;20157;-90
2022/06/17 06:54:15;;;;;;;8.63;4.60;;;27.50;40.50;;;;;;6221487;23;20439;-88
2022/06/17 06:56:41;;;;;;;5.13;4.60;;;27.60;39.40;;;;;;6222735;23;20152;-90
2022/06/17 06:59:08;;;;;;;5.00;4.37;;;27.90;39.20;;;;;;6223181;23;20412;-89
2022/06/17 07:01:34;;;;;;;4.13;3.43;;;28.00;37.90;;;;;;6224541;23;20157;-89
2022/06/17 07:04:00;;;;;;;5.43;4.10;;;28.10;37.80;;;;;;6199548;23;20445;-90
2022/06/17 07:06:25;;;;;;;6.07;4.20;;;28.20;38.00;;;;;;6225408;23;20187;-90
2022/06/17 07:08:51;;;;;;;4.70;3.50;;;28.40;37.00;;;;;;6198622;23;20180;-90
2022/06/17 07:11:17;;;;;;;7.70;3.40;;;28.50;36.70;;;;;;6221823;23;20358;-89
2022/06/17 07:13:43;;;;;;;7.73;3.57;;;28.50;35.50;;;;;;6246750;22;20176;-90
2022/06/17 07:16:11;;;;;;;10.73;4.80;;;28.50;34.90;;;;;;6220102;23;20433;-90
2022/06/17 07:18:38;;;;;;;4.73;3.13;;;28.30;35.60;;;;;;6220289;23;20167;-90
2022/06/17 07:21:06;;;;;;;7.50;4.10;;;28.30;36.10;;;;;;6220601;23;20415;-90
2022/06/17 07:23:36;;;;;;;9.37;3.80;;;28.20;35.80;;;;;;6223102;23;20454;-90
2022/06/17 07:26:13;;;;;;;6.77;4.00;;;28.20;35.80;;;;;;6221231;23;20365;-89
2022/06/17 07:28:39;;;;;;;4.23;3.83;;;28.10;36.10;;;;;;6221071;23;20458;-90
2022/06/17 07:31:05;;;;;;;5.00;3.20;;;28.00;37.40;;;;;;6221596;23;20464;-91
2022/06/17 07:33:31;;;;;;;5.60;3.57;;;27.90;36.90;;;;;;6221295;23;20460;-89
2022/06/17 07:36:01;;;;;;;4.10;3.23;;;27.70;37.90;;;;;;6221493;23;20184;-90
2022/06/17 07:41:16;;;;;;;7.50;3.40;;;27.40;38.60;;;;;;6249601;23;20359;-89
2022/06/17 07:43:58;;;;;;;4.53;3.70;;;27.20;39.20;;;;;;6222323;23;20482;-90
2022/06/17 07:46:23;;;;;;;7.07;3.63;;;27.00;39.20;;;;;;6252155;23;20364;-90
2022/06/17 07:48:49;;;;;;;4.10;3.33;;;26.80;38.90;;;;;;6226739;23;20915;-88
2022/06/17 07:51:16;;;;;;;7.80;3.17;;;26.60;38.70;;;;;;6223046;23;20157;-89
2022/06/17 07:53:42;;;;;;;4.90;3.03;;;26.50;39.40;;;;;;6223879;23;20438;-89
2022/06/17 07:56:13;;;;;;;10.20;3.53;;;26.40;39.20;;;;;;6199191;23;20460;-88
2022/06/17 07:58:39;;;;;;;5.63;2.50;;;26.20;39.70;;;;;;6223828;23;20375;-87
2022/06/17 08:01:06;;;;;;;7.43;3.80;;;26.10;40.40;;;;;;6249989;23;20382;-89
2022/06/17 08:03:32;;;;;;;4.73;3.20;;;26.10;40.10;;;;;;6222713;23;20433;-89
2022/06/17 08:06:01;;;;;;;3.50;2.73;;;26.10;39.70;;;;;;6250687;23;20379;-89
2022/06/17 08:08:27;;;;;;;5.80;3.63;;;26.10;40.40;;;;;;6250112;23;20156;-89
2022/06/17 08:10:56;;;;;;;7.73;2.70;;;26.10;41.30;;;;;;6221904;23;20393;-89
2022/06/17 08:13:23;;;;;;;6.73;2.97;;;26.10;41.30;;;;;;6222151;23;20889;-89
2022/06/17 08:16:08;;;;;;;5.97;3.47;;;26.10;40.70;;;;;;6221093;23;20402;-91
2022/06/17 08:18:36;;;;;;;6.47;3.70;;;26.20;39.90;;;;;;6222173;23;20410;-90
2022/06/17 08:21:03;;;;;;;5.50;3.50;;;26.10;41.00;;;;;;6222640;23;20380;-89
2022/06/17 08:23:29;;;;;;;4.67;2.90;;;26.10;40.50;;;;;;6223115;23;20430;-89
2022/06/17 08:25:57;;;;;;;5.83;3.10;;;26.10;40.70;;;;;;6249783;23;20381;-87
2022/06/17 08:28:23;;;;;;;5.17;2.77;;;26.10;41.30;;;;;;6222816;23;20386;-88
2022/06/17 08:30:53;;;;;;;9.90;3.40;;;26.10;41.60;;;;;;6222293;23;20403;-90
2022/06/17 08:33:29;;;;;;;4.80;3.23;;;26.00;42.50;;;;;;6222352;23;20413;-89
2022/06/17 08:36:09;;;;;;;4.17;2.77;;;26.10;41.60;;;;;;6249933;23;20377;-89
2022/06/17 08:38:39;;;;;;;9.33;3.13;;;26.10;39.60;;;;;;6222789;23;20856;-90
2022/06/17 08:41:28;;;;;;;3.63;2.40;;;26.20;38.90;;;;;;6223202;23;20374;-88
2022/06/17 08:44:03;;;;;;;3.67;2.70;;;26.30;39.70;;;;;;6223655;23;20438;-89
2022/06/17 08:46:53;;;;;;;8.93;2.47;;;26.20;39.20;;;;;;6250950;23;20377;-90
2022/06/17 08:49:27;;;;;;;4.40;2.50;;;26.30;39.20;;;;;;6224337;23;20362;-91
2022/06/17 08:52:11;;;;;;;4.27;2.80;;;26.20;40.10;;;;;;6250404;23;20359;-88
2022/06/17 08:54:55;;;;;;;5.80;3.10;;;26.30;40.50;;;;;;6233000;23;20387;-84
2022/06/17 08:57:47;;;;;;;7.70;3.10;;;26.40;40.30;;;;;;6229684;23;20378;-87
2022/06/17 09:00:26;;;;;;;5.13;3.20;;;26.50;38.50;;;;;;6211851;23;20703;-86
2022/06/17 09:03:13;;;;;;;6.00;3.60;;;26.60;39.10;;;;;;6248084;22;20418;-86
2022/06/17 09:05:58;;;;;;;7.23;3.50;;;26.60;39.40;;;;;;6221945;23;20376;-88
2022/06/17 09:09:01;;;;;;;6.27;2.83;;;26.60;39.00;;;;;;6222483;23;20714;-87
2022/06/17 09:11:56;;;;;;;7.70;3.40;;;26.60;39.40;;;;;;6222552;23;20421;-89
2022/06/17 09:14:39;;;;;;;6.57;2.50;;;26.50;40.10;;;;;;6233566;23;20399;-87
2022/06/17 09:17:23;;;;;;;6.77;3.40;;;26.60;39.10;;;;;;6244771;23;20382;-87
2022/06/17 09:19:53;;;;;;;6.83;3.13;;;26.60;39.20;;;;;;6241877;22;20762;-89
2022/06/17 09:22:26;;;;;;;3.67;2.90;;;26.70;39.40;;;;;;6247966;22;20391;-89
2022/06/17 09:24:54;;;;;;;8.83;3.13;;;26.70;36.90;;;;;;6221032;23;20372;-89
2022/06/17 09:27:25;;;;;;;7.00;3.23;;;26.60;37.90;;;;;;6220883;23;20390;-89
2022/06/17 09:29:54;;;;;;;9.30;3.23;;;26.40;38.40;;;;;;6220844;23;20368;-90
2022/06/17 09:32:30;;;;;;;6.00;3.30;;;26.50;37.90;;;;;;6220644;23;20410;-89
2022/06/17 09:35:04;;;;;;;4.13;2.80;;;26.50;38.40;;;;;;6221047;23;20367;-90
2022/06/17 09:37:48;;;;;;;4.20;2.37;;;26.60;35.80;;;;;;6247714;23;20395;-89
2022/06/17 09:40:28;;;;;;;2.97;2.50;;;26.90;37.40;;;;;;6221538;23;20437;-88
2022/06/17 09:43:17;;;;;;;6.13;2.90;;;27.00;37.00;;;;;;6222055;23;20774;-89
2022/06/17 09:45:52;;;;;;;2.90;2.60;;;27.00;36.70;;;;;;6222788;23;20382;-88
2022/06/17 09:48:32;;;;;;;6.60;2.63;;;27.00;36.30;;;;;;6221327;23;20444;-88
2022/06/17 09:51:10;;;;;;;4.23;2.50;;;27.10;34.20;;;;;;6221597;23;20378;-88
2022/06/17 09:53:56;;;;;;;4.10;2.77;;;27.20;33.60;;;;;;6221438;23;20483;-90
2022/06/17 09:57:09;;;;;;;4.63;3.37;;;27.30;35.20;;;;;;6221507;23;20471;-89
2022/06/17 09:59:41;;;;;;;4.80;3.10;;;27.30;36.30;;;;;;6142032;23;20385;-89
2022/06/17 10:02:22;;;;;;;7.80;3.17;;;27.20;37.70;;;;;;6221440;22;20413;-88
2022/06/17 10:04:50;;;;;;;5.10;3.03;;;27.30;36.50;;;;;;6224425;23;20391;-90
2022/06/17 10:07:39;;;;;;;4.97;3.40;;;27.40;35.40;;;;;;6233155;23;20790;-88
2022/06/17 10:10:50;;;;;;;5.07;2.90;;;27.40;35.80;;;;;;6233874;23;20459;-87
2022/06/17 10:13:19;;;;;;;3.40;2.70;;;27.50;34.20;;;;;;6219946;23;20474;-88
2022/06/17 10:19:13;;;;;;;5.03;3.00;;;27.60;36.10;;;;;;6247771;23;20407;-89
2022/06/17 10:22:01;;;;;;;4.97;3.10;;;27.70;35.40;;;;;;6220059;23;20477;-89
2022/06/17 10:24:38;;;;;;;5.20;3.63;;;27.80;35.70;;;;;;6219954;23;20421;-88
2022/06/17 10:27:12;;;;;;;3.57;3.23;;;27.80;35.00;;;;;;6220365;23;20379;-88
2022/06/17 10:30:08;;;;;;;4.60;2.90;;;27.80;35.00;;;;;;6220336;23;20852;-87
2022/06/17 10:32:39;;;;;;;6.03;2.90;;;27.90;34.20;;;;;;6221418;23;20417;-90
2022/06/17 10:35:13;;;;;;;5.40;2.60;;;27.90;33.50;;;;;;6220054;23;20371;-89
2022/06/17 10:37:40;;;;;;;3.07;2.77;;;28.00;33.40;;;;;;6196293;23;20381;-88
2022/06/17 10:40:09;;;;;;;5.50;2.80;;;28.00;33.50;;;;;;6246964;23;20379;-87
2022/06/17 10:42:35;;;;;;;3.80;3.27;;;28.00;32.80;;;;;;6219855;23;20432;-88
2022/06/17 10:45:02;;;;;;;6.37;3.87;;;28.10;34.00;;;;;;6247277;23;20378;-88
2022/06/17 10:47:34;;;;;;;3.87;2.30;;;28.10;33.30;;;;;;6219732;23;20384;-86
2022/06/17 10:50:20;;;;;;;10.33;3.17;;;28.10;32.80;;;;;;6220103;23;20387;-87
2022/06/17 10:52:57;;;;;;;4.00;2.37;;;28.00;32.90;;;;;;6219610;23;20887;-88
2022/06/17 10:55:39;;;;;;;20.47;4.03;;;27.90;33.10;;;;;;6220584;23;20375;-88
2022/06/17 10:58:07;;;;;;;2.50;2.30;;;27.80;33.70;;;;;;6220968;23;20384;-89
2022/06/17 11:00:40;;;;;;;3.83;2.97;;;27.80;33.80;;;;;;6219897;23;20384;-87
2022/06/17 11:03:26;;;;;;;5.10;3.70;;;27.90;32.20;;;;;;6220808;23;20780;-87
2022/06/17 11:06:10;;;;;;;6.00;2.90;;;28.00;31.80;;;;;;6221975;23;20864;-90
2022/06/17 11:09:00;;;;;;;2.43;2.20;;;28.10;31.90;;;;;;6220154;23;20373;-89
2022/06/17 11:15:05;;;;;;;5.57;2.50;;;28.20;32.40;;;;;;6247903;23;20396;-90
2022/06/17 11:17:43;;;;;;;2.03;1.83;;;28.10;32.00;;;;;;6130972;23;20378;-91
2022/06/17 11:20:35;;;;;;;3.47;2.27;;;28.00;33.40;;;;;;6240156;23;20379;-89
2022/06/17 11:23:15;;;;;;;4.00;3.20;;;28.20;33.60;;;;;;6220603;23;20435;-89
2022/06/17 11:25:42;;;;;;;5.10;2.70;;;28.30;32.70;;;;;;6222557;23;20987;-90
2022/06/17 11:28:08;;;;;;;5.10;2.43;;;28.50;32.30;;;;;;6222260;23;20437;-90
2022/06/17 11:30:34;;;;;;;3.83;2.40;;;28.50;31.60;;;;;;6222663;23;20392;-89
2022/06/17 11:33:01;;;;;;;3.17;2.87;;;28.50;31.30;;;;;;6220977;23;20192;-89
2022/06/17 11:35:29;;;;;;;2.70;2.30;;;28.50;32.00;;;;;;6220491;23;20418;-89
2022/06/17 11:37:57;;;;;;;3.43;2.70;;;28.50;32.30;;;;;;6220473;23;20436;-88
2022/06/17 11:40:30;;;;;;;3.00;2.47;;;28.40;32.60;;;;;;6230350;23;20853;-88
2022/06/17 11:42:58;;;;;;;3.53;2.40;;;28.40;33.80;;;;;;6239227;23;20411;-89
2022/06/17 11:45:24;;;;;;;9.63;2.53;;;28.50;32.00;;;;;;6266281;23;20387;-89
2022/06/17 11:47:59;;;;;;;5.63;2.57;;;28.60;33.30;;;;;;6222237;23;20415;-90
2022/06/17 11:50:35;;;;;;;5.90;2.50;;;28.60;34.00;;;;;;6221718;23;20147;-89
2022/06/17 11:53:11;;;;;;;6.57;2.50;;;28.70;32.30;;;;;;6221705;23;20417;-89
2022/06/17 11:55:47;;;;;;;6.13;2.60;;;28.60;32.30;;;;;;6248853;23;20437;-88
2022/06/17 11:58:17;;;;;;;2.90;2.13;;;28.40;32.20;;;;;;6221316;23;20386;-90
2022/06/17 12:00:48;;;;;;;4.70;2.80;;;28.50;31.70;;;;;;6250390;23;20845;-89
2022/06/17 12:03:21;;;;;;;2.50;2.30;;;28.30;32.50;;;;;;6232804;23;20474;-88
2022/06/17 12:06:02;;;;;;;3.43;2.50;;;28.30;33.60;;;;;;6222343;23;20376;-89
2022/06/17 12:09:09;;;;;;;4.30;2.30;;;28.40;32.20;;;;;;6219805;23;20386;-87
2022/06/17 12:11:48;;;;;;;5.30;2.50;;;28.80;32.00;;;;;;6130002;23;20469;-88
2022/06/17 12:14:46;;;;;;;4.47;2.17;;;28.70;32.10;;;;;;6132103;23;20413;-88
2022/06/17 12:17:14;;;;;;;7.97;3.30;;;28.70;32.10;;;;;;6223860;23;20411;-89
2022/06/17 12:19:40;;;;;;;12.57;2.93;;;28.80;32.10;;;;;;6221488;23;20384;-88
2022/06/17 12:22:43;;;;;;;7.80;2.30;;;28.60;32.40;;;;;;6221416;22;20418;-88
2022/06/17 12:25:33;;;;;;;11.67;3.07;;;28.30;32.30;;;;;;6202626;23;20164;-86
2022/06/17 12:28:12;;;;;;;8.83;3.07;;;28.20;33.10;;;;;;6220873;23;20376;-88
2022/06/17 12:31:02;;;;;;;13.87;2.50;;;28.20;33.30;;;;;;6222252;23;20363;-88
2022/06/17 12:33:33;;;;;;;4.70;2.50;;;28.40;33.50;;;;;;6247995;22;20888;-89
2022/06/17 12:36:12;;;;;;;22.33;3.10;;;28.50;33.10;;;;;;6220424;23;20862;-89
2022/06/17 12:38:45;;;;;;;9.13;2.60;;;28.50;33.20;;;;;;6247975;23;20383;-88
2022/06/17 12:41:17;;;;;;;4.07;2.37;;;28.50;34.10;;;;;;6248155;23;20346;-88
2022/06/17 12:43:48;;;;;;;5.07;2.30;;;28.50;33.40;;;;;;6221071;23;20434;-88
2022/06/17 12:46:23;;;;;;;3.13;2.33;;;28.90;31.80;;;;;;6248149;23;20904;-89
2022/06/17 12:55:41;;;;;;;4.93;2.33;;;29.10;34.50;;;;;;6228976;23;20363;-89
2022/06/17 12:58:49;;;;;;;3.33;2.90;;;29.00;34.00;;;;;;6195159;23;20479;-89
2022/06/17 13:01:37;;;;;;;4.90;2.70;;;29.00;34.20;;;;;;6222770;23;20383;-88
2022/06/17 13:04:20;;;;;;;6.00;2.50;;;29.00;34.20;;;;;;6249170;22;21000;-89
2022/06/17 13:06:46;;;;;;;8.67;2.80;;;29.00;33.80;;;;;;6223139;23;21017;-90
2022/06/17 13:09:33;;;;;;;12.23;3.30;;;28.90;33.90;;;;;;6224849;23;20391;-89
2022/06/17 13:12:12;;;;;;;4.23;2.50;;;28.90;33.80;;;;;;6228828;22;20155;-88
2022/06/17 13:14:57;;;;;;;2.53;2.33;;;29.10;32.50;;;;;;6231024;23;20421;-89
2022/06/17 13:17:35;;;;;;;9.60;2.63;;;29.30;32.40;;;;;;6201437;23;20720;-90
2022/06/17 13:20:06;;;;;;;9.03;3.00;;;29.30;33.50;;;;;;6224060;23;20390;-89
2022/06/17 13:22:47;;;;;;;4.67;2.00;;;29.30;33.40;;;;;;6221798;23;20407;-90
2022/06/17 13:25:32;;;;;;;2.97;2.00;;;29.30;33.50;;;;;;6223547;23;20377;-89
2022/06/17 13:28:29;;;;;;;2.90;1.87;;;29.40;32.20;;;;;;6220429;23;20377;-89
2022/06/17 13:31:02;;;;;;;4.33;2.20;;;29.50;32.00;;;;;;6220602;23;20376;-90
2022/06/17 13:34:01;;;;;;;2.40;2.03;;;29.40;33.10;;;;;;6246409;22;20457;-89
2022/06/17 13:36:51;;;;;;;3.50;2.00;;;29.30;32.80;;;;;;6223957;23;20385;-87
2022/06/17 13:39:23;;;;;;;5.20;2.40;;;29.50;31.90;;;;;;6176233;23;20429;-88
2022/06/17 13:42:07;;;;;;;2.37;2.17;;;29.50;31.90;;;;;;6222563;23;20350;-89